createdAt,value
2022-11-03T03:34:43.497Z,8.90
2022-11-03T03:39:46.849Z,9.48
2022-11-03T03:42:17.363Z,8.43
2022-11-03T03:44:47.484Z,7.90
2022-11-03T03:47:20.241Z,8.68
2022-11-03T03:49:48.150Z,9.43
2022-11-03T03:52:16.895Z,8.82
2022-11-03T03:54:44.707Z,8.02
2022-11-03T03:57:16.895Z,8.98
2022-11-03T03:59:44.947Z,8.85
2022-11-03T04:02:13.222Z,9.13
2022-11-03T04:04:41.185Z,9.02
2022-11-03T04:07:26.991Z,9.40
2022-11-03T04:09:54.892Z,10.60
2022-11-03T04:12:41.755Z,10.68
2022-11-03T04:15:30.582Z,12.45
2022-11-03T04:18:15.707Z,12.57
2022-11-03T04:21:01.529Z,13.48
2022-11-03T04:23:30.657Z,13.93
2022-11-03T04:25:58.963Z,12.05
2022-11-03T04:28:28.254Z,12.68
2022-11-03T04:30:59.039Z,12.43
2022-11-03T04:35:58.970Z,13.05
2022-11-03T04:38:29.031Z,12.25
2022-11-03T04:40:59.602Z,13.23
2022-11-03T04:43:35.435Z,12.98
2022-11-03T04:46:03.757Z,12.57
2022-11-03T04:48:31.939Z,11.45
2022-11-03T04:51:01.990Z,11.05
2022-11-03T04:53:33.915Z,10.30
2022-11-03T04:56:07.270Z,10.48
2022-11-03T05:01:11.297Z,10.15
2022-11-03T05:03:40.546Z,11.25
2022-11-03T05:06:14.812Z,11.32
2022-11-03T05:08:43.954Z,11.38
2022-11-03T05:11:18.874Z,11.80
2022-11-03T05:13:48.556Z,11.57
2022-11-03T05:16:17.365Z,12.55
2022-11-03T05:18:47.790Z,13.40
2022-11-03T05:21:18.970Z,12.48
2022-11-03T05:23:49.694Z,12.48
2022-11-03T05:26:21.166Z,13.82
2022-11-03T05:28:53.845Z,12.68
2022-11-03T05:31:27.078Z,14.23
2022-11-03T05:33:58.307Z,13.30
2022-11-03T05:36:29.154Z,13.18
2022-11-03T05:38:59.797Z,12.55
2022-11-03T05:41:29.987Z,13.07
2022-11-03T05:44:02.431Z,13.50
2022-11-03T05:46:32.902Z,12.18
2022-11-03T05:51:39.132Z,12.00
2022-11-03T05:54:09.221Z,12.20
2022-11-03T05:56:37.096Z,12.13
2022-11-03T05:59:06.430Z,13.85
2022-11-03T06:01:36.963Z,12.45
2022-11-03T06:04:16.248Z,12.35
2022-11-03T06:06:44.168Z,13.43
2022-11-03T06:11:45.127Z,14.27
2022-11-03T06:14:22.915Z,13.65
2022-11-03T06:16:53.897Z,13.25
2022-11-03T06:19:28.151Z,12.23
2022-11-03T06:21:58.658Z,14.25
2022-11-03T06:24:31.921Z,14.60
2022-11-03T06:27:00.098Z,14.95
2022-11-03T06:29:33.024Z,15.90
2022-11-03T06:32:00.879Z,18.17
2022-11-03T06:34:38.132Z,18.27
2022-11-03T06:37:20.878Z,18.10
2022-11-03T06:39:49.660Z,19.20
2022-11-03T06:42:20.701Z,18.58
2022-11-03T06:44:51.275Z,17.60
2022-11-03T06:47:24.099Z,17.65
2022-11-03T06:49:54.032Z,16.65
2022-11-03T06:52:28.236Z,17.23
2022-11-03T06:55:01.769Z,17.25
2022-11-03T06:57:35.276Z,17.73
2022-11-03T07:03:10.238Z,17.85
2022-11-03T07:05:39.095Z,17.42
2022-11-03T07:08:20.728Z,16.75
2022-11-03T07:13:20.937Z,17.15
2022-11-03T07:15:50.426Z,17.20
2022-11-03T07:18:23.580Z,16.77
2022-11-03T07:20:53.010Z,16.67
2022-11-03T07:23:25.559Z,15.93
2022-11-03T07:25:55.484Z,15.35
2022-11-03T07:28:27.537Z,14.57
2022-11-03T07:30:56.775Z,14.07
2022-11-03T07:33:27.614Z,14.15
2022-11-03T07:41:20.799Z,14.73
2022-11-03T07:44:02.036Z,13.85
2022-11-03T07:46:32.105Z,13.70
2022-11-03T07:49:02.122Z,13.82
2022-11-03T07:51:32.215Z,14.07
2022-11-03T07:54:04.708Z,15.82
2022-11-03T07:56:36.628Z,15.57
2022-11-03T07:59:12.897Z,14.88
2022-11-03T08:01:45.155Z,15.43
2022-11-03T08:09:16.313Z,16.05
2022-11-03T08:11:44.220Z,16.55
2022-11-03T08:14:12.085Z,16.70
2022-11-03T08:21:38.004Z,17.95
2022-11-03T08:24:06.742Z,17.58
2022-11-03T08:26:34.755Z,16.67
2022-11-03T08:29:02.598Z,15.30
2022-11-03T08:31:30.440Z,14.77
2022-11-03T08:33:58.372Z,15.43
2022-11-03T08:36:27.587Z,14.57
2022-11-03T08:38:55.447Z,13.63
2022-11-03T08:41:23.303Z,13.10
2022-11-03T08:43:51.112Z,14.10
2022-11-03T08:46:19.348Z,13.40
2022-11-03T08:48:47.579Z,11.82
2022-11-03T08:51:16.691Z,13.00
2022-11-03T08:53:46.488Z,13.88
2022-11-03T08:56:17.008Z,14.48
2022-11-03T08:58:47.452Z,15.95
2022-11-03T09:01:16.027Z,16.02
2022-11-03T09:03:44.687Z,16.42
2022-11-03T09:06:12.604Z,16.52
2022-11-03T09:11:29.711Z,16.55
2022-11-03T09:13:58.025Z,16.48
2022-11-03T09:16:26.673Z,16.25
2022-11-03T09:18:54.571Z,15.90
2022-11-03T09:21:22.728Z,13.68
2022-11-03T09:23:50.695Z,13.45
2022-11-03T09:26:19.054Z,13.32
2022-11-03T09:28:49.429Z,13.02
2022-11-03T09:31:17.422Z,12.45
2022-11-03T09:33:45.345Z,10.85
2022-11-03T09:36:13.215Z,10.63
2022-11-03T09:51:19.990Z,10.98
2022-11-03T09:53:48.519Z,10.55
2022-11-03T10:03:50.037Z,13.20
2022-11-03T10:06:18.276Z,12.65
2022-11-03T10:08:47.418Z,12.13
2022-11-03T10:16:21.609Z,11.90
2022-11-03T10:23:50.320Z,8.63
2022-11-03T10:26:20.213Z,8.40
2022-11-03T10:28:59.782Z,8.13
2022-11-03T10:31:35.848Z,9.07
2022-11-03T10:34:05.099Z,8.50
2022-11-03T10:36:35.041Z,8.35
2022-11-03T10:39:25.771Z,8.85
2022-11-03T10:41:58.580Z,8.80
2022-11-03T10:44:28.362Z,8.48
2022-11-03T10:47:01.636Z,8.40
2022-11-03T10:49:30.786Z,8.52
2022-11-03T10:52:09.366Z,8.32
2022-11-03T10:54:38.157Z,9.23
2022-11-03T10:57:06.365Z,9.20
2022-11-03T10:59:37.496Z,9.38
2022-11-03T11:02:16.978Z,8.57
2022-11-03T11:04:45.559Z,8.98
2022-11-03T11:07:20.774Z,7.93
2022-11-03T11:09:48.866Z,10.73
2022-11-03T11:12:19.288Z,12.43
2022-11-03T11:14:58.698Z,12.30
2022-11-03T11:17:52.599Z,11.88
2022-11-03T11:20:41.494Z,12.73
2022-11-03T11:23:52.975Z,14.30
2022-11-03T11:26:41.539Z,11.55
2022-11-03T11:29:42.161Z,11.93
2022-11-03T11:32:51.778Z,11.10
2022-11-03T11:36:08.001Z,12.45
2022-11-03T11:39:01.514Z,12.90
2022-11-03T11:42:07.102Z,12.93
2022-11-03T11:45:04.244Z,12.98
2022-11-03T11:47:35.074Z,13.60
2022-11-03T11:50:33.458Z,13.10
2022-11-03T11:53:15.058Z,12.20
2022-11-03T11:55:51.646Z,12.80
2022-11-03T11:58:27.871Z,12.10
2022-11-03T12:00:58.880Z,11.73
2022-11-03T12:03:33.743Z,11.98
2022-11-03T12:06:01.771Z,12.48
2022-11-03T12:08:31.427Z,11.90
2022-11-03T12:11:02.872Z,11.80
2022-11-03T12:13:53.109Z,12.45
2022-11-03T12:16:31.174Z,10.82
2022-11-03T12:19:19.466Z,10.05
2022-11-03T12:21:48.908Z,9.48
2022-11-03T12:24:38.191Z,9.55
2022-11-03T12:27:21.370Z,10.32
2022-11-03T12:29:49.422Z,9.82
2022-11-03T12:32:32.618Z,10.10
2022-11-03T12:35:02.213Z,10.25
2022-11-03T12:37:30.068Z,9.50
2022-11-03T12:39:57.955Z,9.48
2022-11-03T12:42:27.251Z,10.35
2022-11-03T12:44:55.911Z,9.57
2022-11-03T12:47:23.818Z,11.10
2022-11-03T12:49:51.610Z,9.45
2022-11-03T12:52:19.507Z,9.93
2022-11-03T12:54:47.380Z,9.65
2022-11-03T12:57:15.301Z,9.07
2022-11-03T12:59:44.495Z,9.65
2022-11-03T13:02:12.815Z,9.13
2022-11-03T13:04:40.976Z,10.10
2022-11-03T13:07:08.810Z,9.30
2022-11-03T13:09:36.965Z,8.60
2022-11-03T13:12:22.722Z,10.05
2022-11-03T13:14:52.229Z,9.50
2022-11-03T13:17:20.245Z,9.75
2022-11-03T13:19:54.355Z,9.43
2022-11-03T13:22:22.671Z,9.18
2022-11-03T13:24:50.595Z,9.18
2022-11-03T13:27:18.475Z,8.50
2022-11-03T13:29:46.676Z,7.28
2022-11-03T13:32:15.975Z,7.70
2022-11-03T13:34:43.938Z,7.00
2022-11-03T13:37:11.846Z,7.03
2022-11-03T13:39:40.036Z,7.25
2022-11-03T13:42:07.896Z,7.07
2022-11-03T13:44:35.788Z,7.10
2022-11-03T13:47:03.921Z,7.13
2022-11-03T13:52:21.844Z,7.20
2022-11-03T14:00:26.318Z,6.70
2022-11-03T14:05:43.363Z,6.65
2022-11-03T14:08:11.384Z,7.07
2022-11-03T14:10:39.463Z,6.85
2022-11-03T14:13:06.448Z,7.00
2022-11-03T14:15:35.102Z,8.18
2022-11-03T14:18:02.884Z,6.68
2022-11-03T14:20:30.736Z,6.80
2022-11-03T14:22:59.948Z,7.40
2022-11-03T14:25:27.793Z,8.93
2022-11-03T14:27:55.703Z,8.00
2022-11-03T14:30:23.598Z,8.55
2022-11-03T14:32:59.420Z,6.95
2022-11-03T14:35:28.084Z,7.28
2022-11-03T14:37:56.169Z,7.07
2022-11-03T14:40:43.828Z,6.88
2022-11-03T14:43:12.268Z,6.85
2022-11-03T14:45:42.584Z,6.90
2022-11-03T14:48:10.858Z,7.20
2022-11-03T14:50:38.999Z,6.78
2022-11-03T14:53:08.550Z,6.97
2022-11-03T14:55:38.409Z,6.25
2022-11-03T14:58:06.971Z,6.57
2022-11-03T15:00:35.842Z,7.55
2022-11-03T15:03:04.616Z,6.78
2022-11-03T15:05:48.168Z,6.50
2022-11-03T15:08:19.888Z,6.78
2022-11-03T15:10:49.408Z,7.18
2022-11-03T15:13:17.496Z,7.03
2022-11-03T15:15:46.023Z,6.13
2022-11-03T15:18:13.980Z,6.22
2022-11-03T15:20:41.937Z,7.90
2022-11-03T15:25:59.344Z,5.78
2022-11-03T15:28:27.264Z,6.57
2022-11-03T15:30:55.108Z,6.40
2022-11-03T15:33:22.948Z,6.55
2022-11-03T15:35:50.913Z,6.53
2022-11-03T15:38:19.515Z,7.15
2022-11-03T15:40:47.821Z,6.68
2022-11-03T15:43:17.368Z,6.82
2022-11-03T15:45:45.250Z,6.45
2022-11-03T15:48:13.321Z,7.28
2022-11-03T15:50:41.849Z,6.65
2022-11-03T15:53:09.691Z,7.18
2022-11-03T15:55:37.801Z,7.43
2022-11-03T15:58:06.104Z,7.00
2022-11-03T16:00:37.785Z,7.25
2022-11-03T16:03:05.791Z,6.78
2022-11-03T16:05:33.814Z,7.93
2022-11-03T16:08:01.818Z,7.38
2022-11-03T16:10:30.136Z,7.05
2022-11-03T16:12:57.980Z,7.75
2022-11-03T16:15:26.070Z,7.95
2022-11-03T16:17:55.265Z,7.75
2022-11-03T16:20:27.247Z,8.27
2022-11-03T16:22:55.170Z,7.75
2022-11-03T16:25:23.064Z,9.35
2022-11-03T16:27:50.943Z,8.18
2022-11-03T16:30:19.394Z,8.70
2022-11-03T16:32:47.204Z,8.43
2022-11-03T16:35:16.582Z,8.50
2022-11-03T16:37:44.471Z,9.57
2022-11-03T16:40:18.754Z,9.40
2022-11-03T16:42:47.393Z,9.30
2022-11-03T16:45:20.455Z,9.18
2022-11-03T16:47:49.324Z,10.20
2022-11-03T16:50:19.648Z,9.43
2022-11-03T16:52:49.274Z,9.07
2022-11-03T16:55:18.878Z,9.02
2022-11-03T16:57:47.227Z,9.35
2022-11-03T17:00:17.050Z,9.63
2022-11-03T17:02:45.307Z,9.07
2022-11-03T17:05:14.181Z,10.10
2022-11-03T17:07:46.317Z,9.50
2022-11-03T17:10:16.684Z,9.68
2022-11-03T17:12:44.529Z,9.32
2022-11-03T17:15:12.858Z,10.00
2022-11-03T17:17:41.526Z,9.50
2022-11-03T17:20:10.968Z,9.60
2022-11-03T17:22:38.830Z,10.38
2022-11-03T17:25:10.816Z,10.55
2022-11-03T17:27:43.794Z,9.85
2022-11-03T17:30:33.177Z,9.85
2022-11-03T17:33:06.198Z,10.27
2022-11-03T17:35:39.301Z,10.90
2022-11-03T17:38:13.712Z,10.55
2022-11-03T17:40:44.775Z,10.90
2022-11-03T17:43:20.209Z,10.65
2022-11-03T17:45:48.555Z,10.57
2022-11-03T17:48:16.756Z,10.80
2022-11-03T17:50:48.125Z,10.23
2022-11-03T17:53:22.425Z,10.00
2022-11-03T17:56:23.341Z,9.93
2022-11-03T17:58:46.295Z,9.60
2022-11-03T18:01:23.125Z,10.27
2022-11-03T18:03:52.068Z,10.05
2022-11-03T18:06:21.449Z,9.55
2022-11-03T18:08:50.276Z,10.32
2022-11-03T18:11:44.389Z,9.63
2022-11-03T18:14:12.509Z,9.73
2022-11-03T18:16:40.875Z,10.43
2022-11-03T18:19:13.098Z,10.07
2022-11-03T18:21:41.285Z,9.88
2022-11-03T18:24:15.087Z,10.80
2022-11-03T18:26:44.549Z,10.73
2022-11-03T18:29:12.865Z,10.30
2022-11-03T18:31:43.106Z,10.25
2022-11-03T18:34:16.020Z,9.45
2022-11-03T18:36:44.684Z,10.50
2022-11-03T18:39:18.108Z,9.43
2022-11-03T18:41:47.843Z,10.07
2022-11-03T18:44:19.617Z,8.70
2022-11-03T18:46:47.867Z,9.18
2022-11-03T18:49:16.174Z,9.80
2022-11-03T18:51:47.818Z,10.07
2022-11-03T18:56:53.602Z,9.90
2022-11-03T18:59:24.312Z,10.52
2022-11-03T19:01:52.714Z,11.13
2022-11-03T19:04:21.171Z,10.70
2022-11-03T19:06:51.351Z,10.85
2022-11-03T19:09:22.170Z,11.57
2022-11-03T19:11:52.725Z,10.90
2022-11-03T19:14:26.498Z,10.38
2022-11-03T19:19:44.709Z,10.57
2022-11-03T19:22:14.198Z,10.15
2022-11-03T19:24:42.275Z,10.57
2022-11-03T19:27:17.295Z,10.75
2022-11-03T19:29:47.012Z,11.05
2022-11-03T19:32:20.743Z,10.30
2022-11-03T19:34:58.287Z,11.35
2022-11-03T19:37:29.863Z,10.75
2022-11-03T19:40:02.293Z,11.82
2022-11-03T19:42:33.157Z,10.32
2022-11-03T19:45:02.757Z,9.85
2022-11-03T19:47:34.741Z,9.73
2022-11-03T19:50:04.991Z,11.00
2022-11-03T19:52:34.663Z,10.05
2022-11-03T19:55:05.617Z,9.95
2022-11-03T19:57:36.914Z,9.38
2022-11-03T20:00:10.329Z,10.38
2022-11-03T20:02:39.161Z,10.75
2022-11-03T20:05:07.498Z,10.23
2022-11-03T20:07:35.493Z,10.70
2022-11-03T20:10:03.557Z,9.82
2022-11-03T20:12:32.221Z,10.52
2022-11-03T20:15:01.467Z,10.40
2022-11-03T20:17:29.329Z,9.65
2022-11-03T20:19:57.177Z,10.95
2022-11-03T20:22:30.196Z,9.93
2022-11-03T20:25:01.430Z,10.88
2022-11-03T20:27:29.289Z,10.55
2022-11-03T20:29:57.749Z,9.38
2022-11-03T20:32:27.130Z,9.73
2022-11-03T20:34:55.148Z,10.07
2022-11-03T20:37:22.994Z,9.82
2022-11-03T20:39:50.915Z,9.27
2022-11-03T20:42:22.371Z,10.55
2022-11-03T20:44:50.609Z,10.10
2022-11-03T20:47:19.320Z,10.55
2022-11-03T20:49:48.731Z,9.93
2022-11-03T20:52:17.425Z,10.00
2022-11-03T20:54:45.761Z,10.30
2022-11-03T20:57:15.160Z,9.82
2022-11-03T20:59:42.988Z,9.98
2022-11-03T21:02:13.089Z,10.02
2022-11-03T21:04:41.153Z,10.20
2022-11-03T21:07:13.802Z,9.88
2022-11-03T21:09:42.100Z,10.68
2022-11-03T21:12:13.388Z,10.77
2022-11-03T21:15:04.090Z,9.23
2022-11-03T21:17:49.166Z,9.82
2022-11-03T21:20:17.166Z,9.75
2022-11-03T21:22:52.262Z,9.23
2022-11-03T21:25:23.293Z,9.85
2022-11-03T21:27:51.767Z,9.43
2022-11-03T21:30:20.135Z,9.77
2022-11-03T21:32:48.165Z,9.32
2022-11-03T21:35:17.554Z,9.90
2022-11-03T21:37:47.187Z,9.52
2022-11-03T21:40:15.201Z,9.48
2022-11-03T21:43:00.626Z,10.35
2022-11-03T21:45:28.987Z,9.50
2022-11-03T21:48:14.867Z,9.95
2022-11-03T21:50:43.178Z,9.70
2022-11-03T21:53:12.825Z,9.73
2022-11-03T21:55:41.290Z,10.10
2022-11-03T21:58:09.389Z,9.35
2022-11-03T22:00:37.579Z,10.00
2022-11-03T22:03:05.912Z,9.70
2022-11-03T22:05:34.238Z,10.15
2022-11-03T22:08:02.093Z,10.38
2022-11-03T22:10:31.381Z,8.57
2022-11-03T22:12:59.234Z,10.00
2022-11-03T22:15:40.900Z,10.65
2022-11-03T22:18:09.174Z,9.50
2022-11-03T22:20:54.912Z,9.70
2022-11-03T22:23:40.188Z,9.95
2022-11-03T22:26:28.850Z,9.82
2022-11-03T22:29:12.727Z,10.20
2022-11-03T22:31:43.653Z,10.48
2022-11-03T22:34:29.231Z,10.68
2022-11-03T22:36:57.068Z,11.43
2022-11-03T22:39:42.467Z,10.82
2022-11-03T22:42:29.852Z,10.90
2022-11-03T22:45:15.295Z,9.95
2022-11-03T22:47:43.096Z,11.20
2022-11-03T22:50:11.134Z,10.23
2022-11-03T22:52:38.959Z,9.88
2022-11-03T22:55:06.113Z,10.80
2022-11-03T22:57:35.337Z,10.93
2022-11-03T23:00:05.645Z,11.02
2022-11-03T23:02:33.634Z,10.80
2022-11-03T23:05:01.790Z,10.77
2022-11-03T23:07:31.755Z,10.55
2022-11-03T23:10:04.785Z,11.15
2022-11-03T23:12:32.886Z,10.55
2022-11-03T23:15:34.097Z,10.82
2022-11-03T23:18:20.295Z,9.75
2022-11-03T23:21:06.231Z,10.57
2022-11-03T23:23:52.544Z,11.40
2022-11-03T23:26:20.529Z,11.77
2022-11-03T23:28:48.511Z,11.60
2022-11-03T23:31:18.382Z,11.65
2022-11-03T23:33:46.315Z,11.40
2022-11-03T23:36:15.712Z,11.77
2022-11-03T23:38:43.864Z,11.95
2022-11-03T23:41:14.089Z,11.75
2022-11-03T23:43:42.514Z,12.13
2022-11-03T23:46:29.218Z,8.50
2022-11-03T23:48:58.889Z,7.18
2022-11-03T23:51:28.643Z,5.65
2022-11-03T23:53:58.134Z,4.45
2022-11-03T23:56:45.114Z,4.63
2022-11-03T23:59:14.411Z,5.60
